createdAt,value
2018-05-07T00:00:19.211Z,3.77
2018-05-07T00:05:23.288Z,5.10
2018-05-07T00:10:25.963Z,5.57
2018-05-07T00:15:28.963Z,4.37
2018-05-07T00:20:31.536Z,3.50
2018-05-07T00:25:34.975Z,3.13
2018-05-07T00:30:38.393Z,7.57
2018-05-07T00:35:41.708Z,3.77
2018-05-07T00:40:45.027Z,6.87
2018-05-07T00:45:48.395Z,8.07
2018-05-07T00:50:50.949Z,3.73
2018-05-07T00:55:53.511Z,2.50
2018-05-07T01:00:57.293Z,3.90
2018-05-07T01:05:59.865Z,5.80
2018-05-07T01:11:02.422Z,7.10
2018-05-07T01:16:07.562Z,4.43
2018-05-07T01:21:11.508Z,3.50
2018-05-07T01:26:14.088Z,6.03
2018-05-07T01:31:16.641Z,3.43
2018-05-07T01:36:20.875Z,4.87
2018-05-07T01:41:23.776Z,9.30
2018-05-07T01:46:27.088Z,7.60
2018-05-07T01:51:30.883Z,3.63
2018-05-07T01:56:33.454Z,7.27
2018-05-07T02:01:36.635Z,4.30
2018-05-07T02:06:40.240Z,4.30
2018-05-07T02:11:43.547Z,5.83
2018-05-07T02:16:46.774Z,3.50
2018-05-07T02:21:53.136Z,5.10
2018-05-07T02:26:55.696Z,5.00
2018-05-07T02:32:01.119Z,3.00
2018-05-07T02:37:04.240Z,3.90
2018-05-07T02:42:07.568Z,5.57
2018-05-07T02:47:10.249Z,6.47
2018-05-07T02:52:13.587Z,6.30
2018-05-07T02:57:17.440Z,6.23
2018-05-07T03:02:20.021Z,4.47
2018-05-07T03:07:23.483Z,4.27
2018-05-07T03:12:41.017Z,3.40
2018-05-07T03:17:43.659Z,5.77
2018-05-07T03:22:46.989Z,4.97
2018-05-07T03:27:49.557Z,3.80
2018-05-07T03:32:52.144Z,5.70
2018-05-07T03:37:54.695Z,4.40
2018-05-07T03:42:57.253Z,3.53
2018-05-07T03:48:03.275Z,5.93
2018-05-07T03:53:05.836Z,4.87
2018-05-07T03:58:09.151Z,3.87
2018-05-07T04:03:13.729Z,5.83
2018-05-07T04:08:17.847Z,4.83
2018-05-07T04:13:23.844Z,4.40
2018-05-07T04:18:39.047Z,11.40
2018-05-07T04:23:53.724Z,6.20
2018-05-07T04:28:56.905Z,9.30
2018-05-07T04:34:00.280Z,4.63
2018-05-07T04:39:02.950Z,6.07
2018-05-07T04:44:06.182Z,6.80
2018-05-07T04:49:08.940Z,6.47
2018-05-07T04:54:12.923Z,3.90
2018-05-07T04:59:15.469Z,7.10
2018-05-07T05:04:19.917Z,5.63
2018-05-07T05:09:22.476Z,4.17
2018-05-07T05:14:25.823Z,6.57
2018-05-07T05:19:29.335Z,4.93
2018-05-07T05:24:32.681Z,5.73
2018-05-07T05:29:35.686Z,9.50
2018-05-07T05:34:38.821Z,4.97
2018-05-07T05:39:41.845Z,8.77
2018-05-07T05:44:45.972Z,8.80
2018-05-07T05:49:48.545Z,13.03
2018-05-07T05:54:52.724Z,13.87
2018-05-07T05:59:55.279Z,6.53
2018-05-07T06:04:57.921Z,10.93
2018-05-07T06:10:00.788Z,7.60
2018-05-07T06:15:03.969Z,8.63
2018-05-07T06:20:07.110Z,7.50
2018-05-07T06:25:10.244Z,6.03
2018-05-07T06:30:12.823Z,8.27
2018-05-07T06:35:15.877Z,8.27
2018-05-07T06:40:18.712Z,7.00
2018-05-07T06:45:22.522Z,6.37
2018-05-07T06:50:26.188Z,8.53
2018-05-07T06:55:30.191Z,6.27
2018-05-07T07:00:34.195Z,16.53
2018-05-07T07:05:36.760Z,4.40
2018-05-07T07:10:41.943Z,5.03
2018-05-07T07:15:45.400Z,8.60
2018-05-07T07:20:48.645Z,7.53
2018-05-07T07:25:51.956Z,8.70
2018-05-07T07:30:54.811Z,7.10
2018-05-07T07:35:59.268Z,7.10
2018-05-07T07:41:03.056Z,5.70
2018-05-07T07:46:06.484Z,12.53
2018-05-07T07:51:09.035Z,6.23
2018-05-07T07:56:11.603Z,8.20
2018-05-07T08:01:14.918Z,7.40
2018-05-07T08:06:19.845Z,8.10
2018-05-07T08:11:24.297Z,9.37
2018-05-07T08:16:27.328Z,7.73
2018-05-07T08:21:29.912Z,6.60
2018-05-07T08:26:33.250Z,12.97
2018-05-07T08:31:35.844Z,8.50
2018-05-07T08:36:38.432Z,7.67
2018-05-07T08:41:42.333Z,6.40
2018-05-07T08:46:44.897Z,13.20
2018-05-07T08:51:49.946Z,13.10
2018-05-07T08:56:52.508Z,6.50
2018-05-07T09:01:56.283Z,8.00
2018-05-07T09:06:58.858Z,11.57
2018-05-07T09:12:08.411Z,6.33
2018-05-07T09:17:11.300Z,8.63
2018-05-07T09:22:15.015Z,10.37
2018-05-07T09:27:18.349Z,9.10
2018-05-07T09:32:21.230Z,8.67
2018-05-07T09:37:23.964Z,11.03
2018-05-07T09:42:26.845Z,11.80
2018-05-07T09:47:30.633Z,7.13
2018-05-07T09:52:33.211Z,7.30
2018-05-07T09:57:35.775Z,7.37
2018-05-07T10:02:39.125Z,12.50
2018-05-07T10:07:41.712Z,12.73
2018-05-07T10:12:44.284Z,9.77
2018-05-07T10:17:47.635Z,12.43
2018-05-07T10:22:50.191Z,12.53
2018-05-07T10:27:53.524Z,6.10
2018-05-07T10:32:56.108Z,6.80
2018-05-07T10:37:59.425Z,12.80
2018-05-07T10:43:02.760Z,14.47
2018-05-07T10:48:05.317Z,10.87
2018-05-07T10:53:07.866Z,9.57
2018-05-07T10:58:10.437Z,12.73
2018-05-07T11:03:13.763Z,5.80
2018-05-07T11:08:16.341Z,11.90
2018-05-07T11:13:19.669Z,11.20
2018-05-07T11:18:22.993Z,8.50
2018-05-07T11:23:25.675Z,13.23
2018-05-07T11:28:29.008Z,10.97
2018-05-07T11:33:31.592Z,12.33
2018-05-07T11:38:34.927Z,10.20
2018-05-07T11:43:37.492Z,12.47
2018-05-07T11:48:40.064Z,9.93
2018-05-07T11:53:42.659Z,11.37
2018-05-07T11:58:45.236Z,8.40
2018-05-07T12:03:47.808Z,7.20
2018-05-07T12:08:50.359Z,6.87
2018-05-07T12:13:52.920Z,9.17
2018-05-07T12:18:55.490Z,10.87
2018-05-07T12:23:58.847Z,7.10
2018-05-07T12:29:01.435Z,11.83
2018-05-07T12:34:04.014Z,14.00
2018-05-07T12:39:06.603Z,15.10
2018-05-07T12:44:09.927Z,8.13
2018-05-07T12:49:12.502Z,5.53
2018-05-07T12:54:15.928Z,16.70
2018-05-07T12:59:19.277Z,12.10
2018-05-07T13:04:21.849Z,12.90
2018-05-07T13:09:25.223Z,13.77
2018-05-07T13:14:27.808Z,16.00
2018-05-07T13:19:30.421Z,7.87
2018-05-07T13:24:33.019Z,11.00
2018-05-07T13:29:35.580Z,16.30
2018-05-07T13:34:38.145Z,8.67
2018-05-07T13:39:41.931Z,9.93
2018-05-07T13:44:44.505Z,12.60
2018-05-07T13:49:47.380Z,16.27
2018-05-07T13:54:51.758Z,11.30
2018-05-07T13:59:54.333Z,13.27
2018-05-07T14:04:56.920Z,14.47
2018-05-07T14:10:00.333Z,9.63
2018-05-07T14:15:03.985Z,13.37
2018-05-07T14:20:06.564Z,9.97
2018-05-07T14:25:09.150Z,12.70
2018-05-07T14:30:11.744Z,10.97
2018-05-07T14:35:15.087Z,18.53
2018-05-07T14:40:17.663Z,14.93
2018-05-07T14:45:20.581Z,13.30
2018-05-07T14:50:23.204Z,18.17
2018-05-07T14:55:26.513Z,19.50
2018-05-07T15:00:29.092Z,12.93
2018-05-07T15:05:31.650Z,14.10
2018-05-07T15:10:34.243Z,16.07
2018-05-07T15:15:37.829Z,12.83
2018-05-07T15:20:40.427Z,16.90
2018-05-07T15:25:43.668Z,14.40
2018-05-07T15:30:46.880Z,10.00
2018-05-07T15:35:49.593Z,19.70
2018-05-07T15:40:52.755Z,14.60
2018-05-07T15:45:55.339Z,14.57
2018-05-07T15:50:58.651Z,27.80
2018-05-07T15:56:03.100Z,14.80
2018-05-07T16:01:05.675Z,17.07
2018-05-07T16:06:09.886Z,14.63
2018-05-07T16:11:16.154Z,11.13
2018-05-07T16:16:18.765Z,18.60
2018-05-07T16:21:22.126Z,15.27
2018-05-07T16:26:24.520Z,16.27
2018-05-07T16:31:27.109Z,12.53
2018-05-07T16:36:30.752Z,13.37
2018-05-07T16:41:33.367Z,18.57
2018-05-07T16:46:35.959Z,17.07
2018-05-07T16:51:39.953Z,19.33
2018-05-07T16:56:43.284Z,17.20
2018-05-07T17:01:46.922Z,13.23
2018-05-07T17:06:49.516Z,19.13
2018-05-07T17:11:52.081Z,11.77
2018-05-07T17:16:55.429Z,14.27
2018-05-07T17:21:57.996Z,19.73
2018-05-07T17:27:00.563Z,16.93
2018-05-07T17:37:20.437Z,17.43
2018-05-07T17:42:30.851Z,13.40
2018-05-07T17:53:12.780Z,12.80
2018-05-07T17:58:15.338Z,15.77
2018-05-07T18:03:18.072Z,12.20
2018-05-07T18:08:20.641Z,16.70
2018-05-07T18:13:23.442Z,13.10
2018-05-07T18:18:26.013Z,11.23
2018-05-07T18:23:28.574Z,15.30
2018-05-07T18:28:31.136Z,10.83
2018-05-07T18:33:33.723Z,15.43
2018-05-07T18:38:36.293Z,18.73
2018-05-07T18:43:41.372Z,17.83
2018-05-07T18:48:44.999Z,11.77
2018-05-07T18:53:47.576Z,14.43
2018-05-07T18:58:50.151Z,15.10
2018-05-07T19:03:53.486Z,17.13
2018-05-07T19:08:56.076Z,13.00
2018-05-07T19:13:59.428Z,10.10
2018-05-07T19:19:01.993Z,14.80
2018-05-07T19:24:06.270Z,20.67
2018-05-07T19:29:08.830Z,14.13
2018-05-07T19:34:12.157Z,14.63
2018-05-07T19:39:14.741Z,15.93
2018-05-07T19:44:17.327Z,15.33
2018-05-07T19:49:21.598Z,14.47
2018-05-07T19:54:24.154Z,15.80
2018-05-07T19:59:27.497Z,10.60
2018-05-07T20:04:30.922Z,12.60
2018-05-07T20:09:34.938Z,11.73
2018-05-07T20:14:38.455Z,14.40
2018-05-07T20:19:41.027Z,9.70
2018-05-07T20:24:43.606Z,11.53
2018-05-07T20:29:46.247Z,9.93
2018-05-07T20:34:49.606Z,10.97
2018-05-07T20:39:52.211Z,14.67
2018-05-07T20:44:54.767Z,13.50
2018-05-07T20:49:58.096Z,9.87
2018-05-07T20:55:00.667Z,9.77
2018-05-07T21:00:04.015Z,11.10
2018-05-07T21:05:06.576Z,12.77
2018-05-07T21:10:09.145Z,10.60
2018-05-07T21:15:11.748Z,12.40
2018-05-07T21:20:14.942Z,22.63
2018-05-07T21:25:17.509Z,11.93
2018-05-07T21:30:20.067Z,14.47
2018-05-07T21:35:22.616Z,11.27
2018-05-07T21:40:25.194Z,14.23
2018-05-07T21:45:28.802Z,12.10
2018-05-07T21:50:32.136Z,10.40
2018-05-07T21:55:35.542Z,12.37
2018-05-07T22:00:38.122Z,11.50
2018-05-07T22:05:41.147Z,10.17
2018-05-07T22:10:43.725Z,15.33
2018-05-07T22:15:48.084Z,10.27
2018-05-07T22:20:50.662Z,14.10
2018-05-07T22:25:53.993Z,7.67
2018-05-07T22:30:57.343Z,10.97
2018-05-07T22:35:59.920Z,8.00
2018-05-07T22:41:02.476Z,8.60
2018-05-07T22:46:05.047Z,15.53
2018-05-07T22:51:07.619Z,14.10
2018-05-07T22:56:10.182Z,14.63
2018-05-07T23:01:13.056Z,15.70
2018-05-07T23:06:15.623Z,11.10
2018-05-07T23:11:18.191Z,11.00
2018-05-07T23:16:21.526Z,8.33
2018-05-07T23:21:24.868Z,9.53
2018-05-07T23:26:27.412Z,9.67
2018-05-07T23:31:29.990Z,11.27
2018-05-07T23:36:32.544Z,11.80
2018-05-07T23:41:35.122Z,6.77
2018-05-07T23:46:38.456Z,10.03
2018-05-07T23:51:42.075Z,9.90
2018-05-07T23:56:45.026Z,9.47
